Wetterstation:     Jahr:     Auswahl:
Download: tageswerte-frauenstein-2021.csv
 
 
Datum
Temp. 2 m
Mittel
[⁰C]
Temp. 2 m
Maximum
[⁰C]
Temp. 2 m
Minimum
[⁰C]
rel. Feuchte
Mittel
[%]
Wind
Mittel
[m/s]
Regen
Summe
[mm]
Strahlung
Summe
[Wh/m²]
Bogrebe
Minimum
[⁰C]
01.01.2021 1,4 3,4 0,2 97,3 0,3 2,6 487,8 -0,1
02.01.2021 1,6 3,4 -0,4 88,0 0,3 0,0 475,2 -1,2
03.01.2021 1,4 2,6 0,3 89,2 1,1 0,9 296,2 -0,3
04.01.2021 1,2 2,1 0,2 95,3 0,4 1,5 212,7 0,0
05.01.2021 2,0 2,9 0,9 89,8 0,3 0,3 245,2 0,6
06.01.2021 2,4 4,1 0,7 87,6 0,5 1,0 573,2 0,4
07.01.2021 1,3 2,7 0,6 87,8 0,5 0,2 415,2 0,3
08.01.2021 1,4 2,9 0,4 89,6 0,6 0,3 725,8 0,0
09.01.2021 0,7 4,5 -2,5 82,0 0,5 0,0 1222,1 -3,0
10.01.2021 -1,3 4,9 -5,1 87,1 0,7 0,0 1679,6 -5,6
11.01.2021 -2,2 2,7 -7,1 85,4 0,4 0,0 1738,9 -7,5
12.01.2021 1,3 3,4 -1,7 94,7 0,7 11,8 394,6 -2,5
13.01.2021 0,6 4,2 -2,7 89,0 0,5 0,1 1087,6 -3,4
14.01.2021 1,5 3,4 0,0 76,4 0,7 0,0 630,3 -0,4
15.01.2021 0,3 1,8 -1,6 76,3 0,7 0,0 962,6 -2,4
16.01.2021 -0,8 1,6 -2,8 75,0 0,5 0,0 772,0 -3,0
17.01.2021 -1,2 0,5 -2,9 95,8 0,0 1,6 275,9 -3,1
18.01.2021 2,5 4,6 0,1 90,5 0,6 2,7 701,6 -0,6
19.01.2021 2,6 4,2 -1,1 88,6 1,1 3,9 187,2 -1,6
20.01.2021 1,7 6,8 -1,9 90,6 0,5 0,0 737,4 -2,3
21.01.2021 7,2 11,0 1,3 82,2 1,4 3,0 731,4 0,8
22.01.2021 5,7 10,6 1,9 89,0 1,0 4,1 634,5 1,5
23.01.2021 2,4 4,9 -0,9 95,6 0,4 1,6 296,6 -1,3
24.01.2021 1,0 3,4 -1,5 92,8 0,9 6,7 830,4 -2,0
25.01.2021 0,4 2,6 -1,5 92,5 0,1 2,6 662,9 -2,0
26.01.2021 1,4 3,8 -1,3 86,7 0,7 0,1 434,1 -1,7
27.01.2021 0,5 1,7 -1,0 97,1 0,3 4,6 247,9 -1,5
28.01.2021 4,8 11,2 0,8 95,8 0,5 15,4 286,4 0,4
29.01.2021 8,2 10,9 6,0 86,2 1,3 10,1 822,5 5,4
30.01.2021 3,6 7,7 0,1 92,6 0,8 8,0 462,1 -0,1
31.01.2021 0,6 1,1 -0,1 87,1 0,5 3,6 537,1 -0,3
01.02.2021 2,7 4,2 1,0 98,0 0,3 4,9 448,9 0,8
02.02.2021 5,6 7,7 3,7 97,8 0,3 5,1 520,1 3,4
03.02.2021 8,6 12,8 4,3 96,4 1,0 23,3 487,8 3,7
04.02.2021 6,9 11,1 2,8 83,7 0,9 0,0 2213,6 2,3
05.02.2021 5,7 7,0 3,0 96,8 0,3 6,1 464,0 2,5
06.02.2021 5,2 6,5 3,3 95,2 0,7 11,8 164,2 3,2
07.02.2021 2,1 3,4 -1,0 94,9 0,6 6,2 217,3 -1,1
08.02.2021 -3,4 -1,0 -5,6 85,2 0,0 0,0 658,1 -5,8
09.02.2021 -6,5 -4,4 -10,0 73,2 0,0 0,0 1184,9 -10,2
10.02.2021 -7,1 -2,4 -10,4 72,3 0,4 0,0 2500,2 -10,5
11.02.2021 -3,8 0,7 -8,5 79,6 0,7 0,6 2713,6 -9,0
12.02.2021 -4,4 -0,3 -7,1 67,2 1,2 0,0 2740,7 -7,7
13.02.2021 -4,2 1,7 -7,6 63,4 1,2 0,0 3119,0 -8,0
14.02.2021 -2,3 4,2 -7,7 62,2 1,1 0,0 3004,1 -8,1
15.02.2021 -1,9 0,1 -5,8 77,1 0,5 0,7 756,0 -6,3
16.02.2021 3,1 9,4 0,0 91,5 0,6 3,3 1803,5 -0,2
17.02.2021 5,3 12,0 0,8 90,7 0,8 0,0 1621,1 0,3
18.02.2021 4,0 8,7 -0,4 91,2 0,8 0,2 1404,2 -1,0
19.02.2021 4,4 11,6 -1,3 89,8 0,8 0,0 2296,4 -1,8
20.02.2021 7,3 16,1 1,4 87,6 1,2 0,1 2904,3 0,7
21.02.2021 8,0 18,5 0,2 80,1 1,2 0,0 3322,4 -0,5
22.02.2021 5,9 13,3 0,2 85,6 0,9 0,0 2327,7 -0,4
23.02.2021 9,2 19,2 2,5 84,5 0,8 0,0 2987,9 2,0
24.02.2021 9,5 18,7 3,0 86,7 1,0 0,0 3008,0 2,2
25.02.2021 8,8 20,3 2,0 80,0 0,9 0,0 3342,0 1,3
26.02.2021 5,3 9,5 2,6 90,2 0,9 0,8 487,5 1,8
27.02.2021 4,9 12,0 -0,8 78,1 0,7 0,0 3197,2 -1,5
28.02.2021 5,5 12,3 -0,9 71,1 1,3 0,0 3873,1 -1,8
01.03.2021 6,6 15,0 -1,6 68,6 1,3 0,0 3894,4 -2,2
02.03.2021 6,9 16,3 0,2 73,4 1,1 0,0 3889,3 -0,5
03.03.2021 6,0 15,8 -0,6 83,4 0,7 0,0 3041,4 -1,0
04.03.2021 7,1 13,1 2,9 83,4 1,1 0,1 2075,9 2,4
05.03.2021 3,5 6,6 -1,0 70,2 1,1 0,0 1838,7 -1,9
06.03.2021 2,1 9,2 -2,9 57,9 1,6 0,0 4334,6 -3,8
07.03.2021 2,4 10,7 -5,5 60,2 0,9 0,0 4396,7 -6,0
08.03.2021 2,1 7,5 -4,3 74,8 0,8 0,0 2850,2 -5,0
09.03.2021 3,4 7,1 -0,7 83,9 0,6 0,0 1941,3 -1,0
10.03.2021 6,1 9,9 2,0 79,8 0,7 0,2 1711,1 1,6
11.03.2021 9,0 15,1 6,0 79,5 1,9 4,3 1920,7 5,7
12.03.2021 6,8 10,9 3,8 73,2 2,0 3,3 2467,0 3,2
13.03.2021 6,1 9,1 3,4 85,0 1,7 5,1 1397,8 2,8
14.03.2021 4,1 8,8 0,7 83,9 0,9 1,4 2166,0 0,2
15.03.2021 5,4 9,5 1,8 82,8 1,6 5,9 3653,4 1,0
16.03.2021 5,4 8,9 1,9 77,2 1,1 0,2 3338,9 1,3
17.03.2021 4,0 7,7 -0,9 79,2 0,9 1,8 2213,6 -1,7
18.03.2021 2,8 7,9 -2,8 75,2 1,0 1,7 3258,6 -3,3
19.03.2021 2,8 7,8 -1,1 77,6 1,0 1,2 3457,4 -1,8
20.03.2021 3,0 8,2 -1,5 61,9 0,8 0,0 4346,0 -2,2
21.03.2021 5,8 10,0 2,7 69,1 1,3 0,0 2601,5 1,7
22.03.2021 5,5 7,8 1,9 73,3 0,9 0,0 1562,8 1,0
23.03.2021 5,9 10,3 0,1 73,0 0,9 0,0 2167,9 -0,4
24.03.2021 5,9 16,0 -2,0 78,4 1,0 0,0 5140,9 -2,5
25.03.2021 7,6 16,7 0,2 77,6 0,9 0,0 3992,0 -0,3
26.03.2021 9,9 17,1 3,1 74,5 0,8 0,0 4127,9 2,5
27.03.2021 6,1 9,7 1,1 76,2 1,8 1,2 2831,6 0,7
28.03.2021 8,1 15,8 0,8 73,4 1,3 0,1 4780,6 0,4
29.03.2021 10,7 22,5 2,0 65,2 1,1 0,0 5431,1 1,5
30.03.2021 11,8 24,0 1,7 61,7 0,9 0,0 5679,0 1,0
31.03.2021 13,3 25,9 3,0 64,2 0,8 0,0 5522,2 2,2
01.04.2021 14,7 25,0 5,6 63,2 1,0 0,0 4899,0 4,9
02.04.2021 8,1 14,4 2,9 64,6 1,3 0,0 3983,2 1,6
03.04.2021 7,6 13,9 0,9 57,2 1,1 0,0 4570,4 0,2
04.04.2021 5,6 11,6 -0,7 70,7 1,1 0,0 5078,1 -1,3
05.04.2021 2,7 7,3 -0,6 79,2 1,7 2,3 1692,7 -1,1
06.04.2021 2,5 7,1 0,1 68,8 2,5 0,0 4773,2 -0,4
07.04.2021 2,0 4,9 0,0 74,9 1,5 0,9 2023,5 -0,8
08.04.2021 3,6 9,9 -1,2 63,6 1,2 0,0 4254,4 -1,9
09.04.2021 7,4 16,7 -2,8 63,3 1,0 0,2 5437,3 -3,4
10.04.2021 9,0 10,4 7,8 91,8 0,6 4,8 942,0 7,5
11.04.2021 7,5 13,7 3,9 88,8 1,3 1,4 1939,7 3,6
12.04.2021 4,0 8,6 -0,7 76,4 1,1 0,5 3348,3 -1,5
13.04.2021 3,4 10,5 -2,3 72,2 0,8 0,0 4529,1 -3,1
14.04.2021 4,0 10,2 -1,7 67,2 0,8 0,0 4363,4 -2,3
15.04.2021 4,5 10,4 -1,8 65,2 0,9 0,0 3807,9 -2,7
16.04.2021 5,5 8,7 1,1 66,1 0,8 0,0 2714,3 0,1
17.04.2021 7,3 11,9 0,9 62,2 0,9 0,0 4515,4 0,5
18.04.2021 8,0 12,0 5,1 80,7 0,4 4,9 1606,0 4,4
19.04.2021 9,4 14,9 4,2 82,1 0,7 2,1 3634,0 3,6
20.04.2021 9,6 18,7 1,1 75,3 1,0 0,0 6669,3 0,5
21.04.2021 10,8 18,4 2,3 71,1 0,8 0,5 4338,6 1,7
22.04.2021 9,2 15,2 3,0 57,9 1,0 0,0 6845,5 1,9
23.04.2021 9,0 18,3 -0,3 60,1 1,2 0,0 7237,1 -0,9
24.04.2021 10,5 18,1 1,3 58,6 0,9 0,0 6932,6 0,2
25.04.2021 9,6 16,8 3,6 53,6 1,0 0,0 7295,3 2,2
26.04.2021 9,3 16,5 2,5 45,0 1,4 0,0 7489,6 1,0
27.04.2021 10,7 18,3 4,0 42,8 1,3 0,0 7430,5 2,4
28.04.2021 11,7 21,0 1,9 63,1 1,0 9,6 6362,3 1,3
29.04.2021 10,6 16,9 2,1 76,0 1,4 6,5 4925,5 1,5
30.04.2021 6,7 11,6 -0,3 79,4 0,7 0,0 3339,3 -0,8
01.05.2021 9,3 14,7 1,8 66,0 0,9 0,0 3734,1 1,3
02.05.2021 8,1 13,7 0,9 61,1 1,3 0,0 4445,4 -0,1
03.05.2021 7,1 14,6 -1,3 69,6 1,1 0,0 5870,5 -1,8
04.05.2021 8,5 13,3 3,6 76,7 1,8 0,6 1787,3 3,1
05.05.2021 6,5 10,9 2,0 78,7 1,4 1,3 4562,1 0,9
06.05.2021 6,1 11,1 1,0 87,5 0,7 5,0 2657,1 0,5
07.05.2021 7,0 12,7 1,9 74,0 1,5 1,2 5535,5 1,3
08.05.2021 9,3 17,3 -0,2 69,4 1,4 0,0 5701,0 -0,7
09.05.2021 17,1 28,4 5,9 64,6 1,5 0,0 6932,8 5,1
10.05.2021 15,2 18,9 12,2 84,2 0,7 6,5 1246,5 11,9
11.05.2021 13,0 15,0 11,0 95,6 0,4 2,0 1633,3 10,5
12.05.2021 12,9 18,2 7,7 82,9 0,8 3,5 3390,2 7,1
13.05.2021 12,1 20,1 4,9 79,7 0,9 0,0 5988,3 4,3
14.05.2021 12,1 18,9 5,3 77,8 0,8 0,7 5759,7 4,7
15.05.2021 11,3 14,3 8,0 81,4 1,0 1,6 3093,0 7,5
16.05.2021 11,3 18,6 5,8 85,0 0,9 9,5 4324,7 5,1
17.05.2021 11,2 15,7 7,9 87,7 0,9 6,4 4021,9 7,0
18.05.2021 10,5 15,8 5,7 84,2 1,0 2,4 5009,9 5,1
19.05.2021 11,0 17,5 4,0 79,4 1,0 0,9 6129,4 3,5
20.05.2021 12,4 17,9 6,7 75,7 0,8 0,0 5221,2 6,2
21.05.2021 13,0 18,0 7,7 71,0 1,4 3,8 5095,0 7,3
22.05.2021 11,1 16,4 7,1 78,8 1,4 1,5 3719,8 6,2
23.05.2021 11,4 17,0 6,7 74,0 1,3 0,1 5254,5 6,0
24.05.2021 11,4 20,4 5,2 78,0 1,1 2,1 4962,8 4,6
25.05.2021 9,6 14,0 8,0 83,9 1,4 5,0 2805,3 7,8
26.05.2021 9,8 14,7 4,8 91,4 0,6 10,0 2718,2 4,3
27.05.2021 10,5 14,1 3,8 85,6 1,1 0,9 2931,6 3,3
28.05.2021 13,1 19,0 7,8 72,1 0,9 0,0 5506,2 7,2
29.05.2021 14,5 21,0 7,0 64,1 1,0 0,0 6081,3 6,1
30.05.2021 15,3 22,4 6,7 62,1 1,3 0,0 7714,5 5,8
31.05.2021 16,4 24,0 8,9 57,2 1,5 0,0 8475,6 8,1
01.06.2021 18,0 25,5 8,0 53,9 1,5 0,0 8493,4 7,2
02.06.2021 19,2 28,6 8,1 59,4 0,9 0,0 8348,8 7,6
03.06.2021 20,3 28,1 13,2 73,2 0,8 0,0 6192,8 12,6
04.06.2021 20,8 28,6 15,0 78,1 0,7 14,5 5720,7 14,7
05.06.2021 18,0 23,4 13,6 91,0 0,6 12,6 3964,8 13,2
06.06.2021 17,2 20,9 14,9 83,6 1,3 0,0 5436,3 14,5
07.06.2021 17,6 21,6 15,4 84,1 0,7 10,3 3002,4 15,2
08.06.2021 19,9 25,1 15,7 76,1 0,7 0,0 4888,8 15,3
09.06.2021 20,8 27,7 13,7 73,9 0,5 0,0 6443,8 13,3
10.06.2021 21,3 28,3 13,7 68,6 0,7 0,0 7398,1 13,4
11.06.2021 21,6 30,0 12,1 67,2 0,7 0,0 7619,0 11,6
12.06.2021 20,4 25,5 14,7 69,4 1,1 0,0 6319,1 13,4
13.06.2021 17,7 25,6 9,4 64,5 0,8 0,0 8584,0 8,7
14.06.2021 20,2 29,1 10,4 60,1 0,9 0,0 8544,9 9,9
15.06.2021 21,6 30,7 11,7 70,4 0,6 0,0 7092,1 11,3
16.06.2021 24,3 32,0 17,1 65,6 0,9 0,0 7524,5 15,8
17.06.2021 26,1 33,5 16,1 63,6 0,9 0,0 7617,4 15,5
18.06.2021 26,9 34,7 17,0 66,0 0,5 0,0 6991,1 16,5
19.06.2021 26,1 33,6 17,3 66,5 0,7 0,0 7914,7 16,8
20.06.2021 24,8 29,1 18,9 67,7 0,9 4,2 6388,6 18,7
21.06.2021 20,7 26,8 16,3 77,0 1,0 0,1 6022,4 16,1
22.06.2021 16,6 19,2 13,6 85,3 0,3 1,6 2655,9 13,2
23.06.2021 19,9 26,6 13,9 77,0 0,5 0,0 5823,2 13,6
24.06.2021 17,4 20,4 16,1 91,4 0,1 14,8 1673,1 15,9
25.06.2021 17,9 23,3 12,5 82,1 0,4 1,4 4473,0 12,2
26.06.2021 19,5 27,1 10,7 71,1 0,6 0,0 7893,5 10,4
27.06.2021 22,4 28,2 17,0 67,6 0,6 0,0 5520,7 15,8
28.06.2021 23,1 30,6 15,7 71,2 0,4 0,0 6747,6 15,1
29.06.2021 19,0 27,3 12,9 85,6 0,4 12,9 4600,8 12,7
30.06.2021 16,1 20,9 12,4 87,8 0,5 2,6 3790,6 12,2
01.07.2021 15,6 18,1 13,7 83,1 0,5 0,1 2400,5 13,4
02.07.2021 18,5 25,9 11,5 73,2 0,6 0,0 6765,0 11,3
03.07.2021 20,6 28,6 11,5 71,1 0,4 0,0 7673,4 11,3
04.07.2021 18,9 23,8 13,1 85,4 0,2 5,3 3667,7 12,9
05.07.2021 17,8 22,9 12,6 92,0 0,2 4,3 2834,2 12,4
06.07.2021 17,5 20,6 14,0 91,2 0,4 11,8 2033,7 13,9
07.07.2021 19,0 26,0 13,0 78,1 0,4 0,0 6565,1 12,8
08.07.2021 17,6 24,2 12,6 86,5 0,3 6,0 3072,1 12,4
09.07.2021 18,5 24,3 14,2 82,3 0,4 0,5 3552,6 14,0
10.07.2021 19,4 26,9 11,6 78,6 0,4 7,8 6417,3 11,5
11.07.2021 18,5 24,6 15,5 85,0 0,2 0,1 3810,4 15,1
12.07.2021 20,5 27,6 12,8 77,1 0,4 1,2 4932,7 12,6
13.07.2021 18,5 23,2 15,7 96,6 0,2 23,3 1635,2 15,6
14.07.2021 16,3 17,6 14,9 95,5 0,3 2,0 904,2 14,8
15.07.2021 19,3 26,8 15,5 84,0 0,2 2,1 5129,7 15,5
16.07.2021 19,4 23,9 15,1 86,5 0,6 7,6 5810,1 14,9
17.07.2021 20,9 28,0 14,4 80,6 0,4 0,0 6370,8 14,3
18.07.2021 21,8 29,5 13,2 72,3 0,4 0,0 7869,9 12,9
19.07.2021 20,8 26,9 12,8 71,1 0,5 0,0 7571,1 12,6
20.07.2021 18,6 26,6 11,0 72,9 0,3 0,0 7143,8 10,9
21.07.2021 19,6 28,1 11,5 65,2 0,7 0,0 7933,7 11,3
22.07.2021 20,4 28,1 12,4 67,7 0,6 0,0 6475,8 12,3
23.07.2021 20,7 29,4 11,4 69,7 0,5 0,0 6594,2 11,4
24.07.2021 20,1 25,1 14,9 79,2 0,3 5,1 4050,0 14,7
25.07.2021 20,1 28,5 14,3 83,1 0,3 1,6 5891,7 14,4
26.07.2021 20,7 28,2 14,0 78,2 0,4 0,0 6577,2 13,9
27.07.2021 19,1 26,5 13,0 82,0 0,3 3,5 4403,9 13,0
28.07.2021 18,5 24,4 13,7 84,5 0,4 1,4 4273,6 13,4
29.07.2021 18,3 23,9 12,6 73,5 0,8 0,1 6041,8 12,4
30.07.2021 19,5 28,2 10,2 70,3 0,6 0,0 7379,2 10,1
31.07.2021 18,1 23,5 10,9 70,8 0,7 0,0 5623,0 10,6
01.08.2021 18,5 25,0 13,8 72,0 0,6 0,2 5632,2 13,6
02.08.2021 16,3 23,7 11,1 85,0 0,4 2,0 4799,3 10,9
03.08.2021 15,7 22,5 11,8 90,1 0,3 9,7 3421,8 11,7
04.08.2021 16,7 21,9 12,1 87,2 0,2 1,2 4265,6 12,1
05.08.2021 18,8 25,3 12,0 80,3 0,3 0,0 6040,0 11,9
06.08.2021 17,4 23,0 12,4 85,3 0,6 4,9 3887,0 12,2
07.08.2021 16,8 22,1 11,9 88,0 0,2 1,9 2813,4 11,8
08.08.2021 15,9 20,3 10,8 85,2 0,5 0,8 4014,5 10,6
09.08.2021 16,2 24,3 9,5 80,9 0,3 0,2 4752,9 9,4
10.08.2021 17,8 25,8 10,9 79,8 0,4 0,0 4519,8 10,8
11.08.2021 20,2 28,6 12,1 76,6 0,5 0,0 6256,3 11,9
12.08.2021 21,4 30,3 12,9 75,7 0,3 0,0 5380,6 12,8
13.08.2021 22,5 31,1 15,5 77,3 0,4 0,0 5550,0 15,2
14.08.2021 22,0 31,2 13,6 73,6 0,4 0,0 6714,1 13,4
15.08.2021 21,1 30,1 12,4 72,0 0,3 0,0 6202,6 12,2
16.08.2021 17,2 22,6 9,5 76,9 0,9 1,4 3085,0 9,2
17.08.2021 13,5 19,6 7,4 84,6 0,4 1,9 3097,4 7,2
18.08.2021 17,2 22,5 13,5 83,1 0,4 0,1 2856,8 13,3
19.08.2021 18,5 22,9 15,4 83,2 0,4 0,0 3109,3 15,2
20.08.2021 18,4 25,2 11,9 78,9 0,3 0,0 4544,3 11,7
21.08.2021 20,2 28,4 12,3 76,1 0,3 1,2 5915,0 12,0
22.08.2021 18,5 25,0 13,1 85,9 0,4 2,0 3811,4 12,8
23.08.2021 17,2 24,0 11,7 85,5 0,2 0,2 4216,1 11,4
24.08.2021 15,9 22,3 9,6 75,4 0,5 0,0 4399,3 8,7
25.08.2021 17,9 25,4 11,8 69,0 0,4 0,0 6004,5 11,1
26.08.2021 16,9 21,1 11,3 72,8 0,7 0,1 4875,1 11,0
27.08.2021 14,1 20,6 8,0 85,1 0,5 1,4 3322,8 7,7
28.08.2021 14,8 20,6 10,2 86,5 0,1 1,1 2594,3 9,9
29.08.2021 15,3 17,0 13,7 90,0 0,4 1,1 1323,7 13,5
30.08.2021 17,1 21,8 11,6 82,4 0,4 0,0 2429,6 11,1
31.08.2021 16,2 22,6 10,5 80,5 0,3 0,0 4262,9 9,9
01.09.2021 15,9 24,1 9,9 79,4 0,3 0,0 4769,6 9,3
02.09.2021 16,9 25,1 8,3 75,4 0,7 0,0 5612,1 7,8
03.09.2021 18,1 27,3 9,6 72,3 0,6 0,0 5916,1 9,1
04.09.2021 18,3 28,5 9,1 73,4 0,4 0,0 5710,6 8,7
05.09.2021 19,6 28,8 11,6 72,7 0,5 0,0 5729,5 11,2
06.09.2021 19,6 29,8 11,5 73,7 0,3 0,0 5328,4 11,2
07.09.2021 18,9 27,4 12,0 73,6 0,5 0,0 4582,2 11,6
08.09.2021 20,3 28,0 13,3 68,2 0,7 0,0 5458,5 12,5
09.09.2021 19,7 27,8 12,0 79,2 0,3 0,0 4333,8 11,6
10.09.2021 19,0 23,8 16,0 91,0 0,2 9,7 2266,8 15,8
11.09.2021 18,0 24,8 12,5 90,8 0,2 8,7 3282,4 12,2
12.09.2021 16,9 25,4 10,7 81,2 0,3 0,0 5167,3 10,4
13.09.2021 16,7 25,5 9,2 80,9 0,4 0,0 4808,1 8,9
14.09.2021 18,5 26,7 10,8 83,7 0,2 0,0 3858,3 10,6
15.09.2021 18,7 22,9 15,9 94,9 0,2 14,9 1590,7 15,5
16.09.2021 16,2 19,6 11,4 83,8 0,3 0,0 2140,4 11,2
17.09.2021 14,5 23,3 8,8 88,1 0,1 0,0 2439,2 8,6
18.09.2021 15,3 23,7 8,6 84,8 0,3 0,0 4187,2 8,4
19.09.2021 14,8 21,0 10,7 80,9 0,4 0,0 3664,6 10,4
20.09.2021 13,5 16,2 11,8 77,9 0,1 0,0 1896,4 11,4
21.09.2021 13,3 19,5 7,2 69,9 0,4 0,0 4292,5 7,1
22.09.2021 12,2 22,3 4,9 82,9 0,2 0,0 4275,9 4,8
23.09.2021 13,9 25,9 4,8 80,3 0,3 0,0 4766,5 4,6
24.09.2021 14,8 22,4 9,0 84,8 0,3 0,0 3097,5 8,7
25.09.2021 15,6 25,4 7,6 80,7 0,3 0,7 4614,4 7,2
26.09.2021 15,7 19,9 11,2 95,1 0,1 7,8 1365,5 10,8
27.09.2021 16,2 21,4 13,0 93,9 0,2 2,5 1447,4 12,6
28.09.2021 12,9 20,0 7,5 85,0 0,2 0,0 3546,0 7,3
29.09.2021 10,9 17,5 5,2 88,5 0,3 1,9 2262,8 4,7
30.09.2021 9,6 17,0 2,7 84,4 0,2 0,0 3654,0 2,5
01.10.2021 11,2 20,1 4,6 82,8 0,3 0,0 4133,1 4,3
02.10.2021 14,6 20,9 9,7 82,7 0,3 0,0 2235,8 9,4
03.10.2021 16,6 20,4 12,0 81,1 0,5 0,1 615,2 11,8
04.10.2021 12,9 17,0 11,0 89,7 0,2 0,3 1560,5 10,7
05.10.2021 12,6 17,7 8,8 91,2 0,4 4,9 1488,0 8,4
06.10.2021 11,0 13,5 8,9 89,7 0,3 1,3 1200,4 8,4
07.10.2021 11,5 18,3 8,5 90,3 0,3 0,8 2168,3 7,8
08.10.2021 11,9 19,3 5,7 83,3 0,3 0,0 3067,3 5,2
09.10.2021 11,5 19,3 5,1 76,9 0,4 0,0 3941,2 4,3
10.10.2021 8,6 18,3 2,1 81,1 0,2 0,0 3531,8 1,5
11.10.2021 7,3 16,3 1,6 91,2 0,1 0,1 1625,9 1,3
12.10.2021 8,8 12,2 3,6 94,8 0,2 6,3 976,5 2,9
13.10.2021 7,6 15,4 2,2 91,0 0,2 0,8 1878,9 1,8
14.10.2021 10,1 17,6 5,3 89,6 0,1 0,0 1714,9 4,9
15.10.2021 7,9 15,3 3,1 92,2 0,2 0,1 1775,2 2,8
16.10.2021 7,6 17,0 1,3 86,9 0,3 0,1 3188,8 0,8
17.10.2021 8,5 15,7 4,2 85,0 0,2 0,0 2225,5 3,8
18.10.2021 6,4 10,5 1,9 96,1 0,2 0,0 760,7 1,5
19.10.2021 8,8 16,3 5,3 98,1 0,1 9,3 932,8 5,0
20.10.2021 12,0 17,5 5,8 96,1 0,3 0,2 896,6 5,4
21.10.2021 11,4 15,5 2,3 78,1 1,5 4,1 1890,9 1,8
22.10.2021 6,7 13,2 -0,7 83,1 0,5 0,3 3027,3 -0,9
23.10.2021 6,7 13,7 2,4 90,2 0,1 0,1 1493,4 1,5
24.10.2021 6,0 14,6 0,3 86,1 0,4 0,1 3100,5 -0,4
25.10.2021 4,5 13,2 -1,5 95,3 0,1 0,1 1719,7 -1,9
26.10.2021 9,7 17,4 3,9 89,2 0,2 0,0 1814,8 3,3
27.10.2021 10,0 18,0 3,4 90,5 0,1 0,1 2126,6 2,9
28.10.2021 6,0 8,1 1,5 99,6 0,1 0,0 537,4 0,9
29.10.2021 6,8 11,0 3,5 96,8 0,2 0,0 1004,9 2,8
30.10.2021 6,0 8,4 2,6 99,0 0,1 2,5 510,3 2,1
31.10.2021 11,8 16,0 8,0 95,9 0,2 1,7 1100,8 7,7
01.11.2021 9,4 14,1 4,1 92,3 0,2 2,8 1102,1 3,5
02.11.2021 6,8 9,1 4,5 99,3 0,1 6,3 834,6 3,9
03.11.2021 7,2 9,1 5,4 98,7 0,3 6,7 375,4 4,9
04.11.2021 7,7 9,2 6,5 88,9 1,1 0,3 607,2 6,0
05.11.2021 6,6 13,2 2,4 90,6 0,1 0,0 1163,0 1,7
06.11.2021 5,6 12,5 0,8 95,1 0,1 0,1 2069,1 0,3
07.11.2021 5,3 8,6 2,0 96,0 0,4 0,2 432,3 1,2
08.11.2021 6,2 12,1 1,6 92,5 0,1 0,0 1406,7 0,8
09.11.2021 6,4 13,1 1,1 85,2 0,5 0,0 2289,1 0,5
10.11.2021 2,1 9,1 -1,4 93,9 0,1 0,0 1493,7 -1,9
11.11.2021 0,8 3,1 -2,7 99,4 0,1 0,1 826,6 -3,1
12.11.2021 1,7 2,1 1,3 100,0 0,2 0,2 275,0 1,2
13.11.2021 3,6 6,4 1,2 100,0 0,1 5,1 354,6 1,1
14.11.2021 7,8 10,3 4,7 93,8 0,2 0,0 652,0 3,4
15.11.2021 7,7 8,2 6,8 85,3 0,2 0,0 254,6 6,5
16.11.2021 6,1 6,9 5,0 91,9 0,0 0,1 183,4 4,8
17.11.2021 5,6 7,7 2,2 93,6 0,1 0,4 600,3 1,4
18.11.2021 4,3 10,3 0,7 94,7 0,2 0,0 1395,9 0,0
19.11.2021 7,7 9,9 5,4 95,1 0,1 0,2 473,2 5,0
20.11.2021 7,7 10,6 3,5 93,9 0,0 0,0 672,2 2,9
21.11.2021 5,8 6,9 5,2 97,0 0,1 0,7 370,2 4,9
22.11.2021 4,6 8,5 -1,9 81,5 0,4 0,0 1193,7 -2,9
23.11.2021 2,5 9,3 -3,8 83,6 0,1 0,0 1820,2 -4,5
24.11.2021 3,9 7,4 0,4 88,1 0,3 0,0 634,8 -0,6
25.11.2021 2,3 4,3 0,0 84,7 0,0 0,0 412,2 -0,6
26.11.2021 1,8 3,6 -1,5 92,1 0,5 2,5 340,4 -2,1
27.11.2021 2,0 6,5 -1,1 93,0 0,3 3,2 1049,0 -1,6
28.11.2021 2,0 3,2 1,4 95,3 0,1 0,9 261,9 1,0
29.11.2021 1,6 4,2 -2,2 91,3 0,4 1,9 523,7 -3,1
30.11.2021 4,1 6,5 1,4 93,2 1,1 10,6 323,2 1,2
01.12.2021 6,1 8,2 2,5 90,2 1,3 1,2 234,6 1,7
02.12.2021 3,1 6,1 0,4 90,1 0,4 2,2 1001,9 -0,2
03.12.2021 0,1 2,6 -4,4 89,5 0,7 0,0 693,4 -5,1
04.12.2021 2,0 5,0 0,3 96,1 0,2 7,0 286,4 0,1
05.12.2021 3,1 6,3 1,1 92,5 0,3 0,6 615,9 0,2
06.12.2021 2,3 6,5 0,3 92,5 0,2 0,6 1262,4 -0,1
07.12.2021 3,1 7,1 0,3 87,2 0,4 5,4 952,7 0,0
08.12.2021 2,6 4,8 0,8 94,9 0,2 2,4 376,4 0,4